createdAt,value
2022-11-19T00:01:12.099Z,2.50
2022-11-19T00:03:40.512Z,2.25
2022-11-19T00:06:16.291Z,3.33
2022-11-19T00:08:43.259Z,3.20
2022-11-19T00:11:16.574Z,2.90
2022-11-19T00:13:43.755Z,2.53
2022-11-19T00:16:15.088Z,2.95
2022-11-19T00:18:42.136Z,2.70
2022-11-19T00:21:11.990Z,2.17
2022-11-19T00:23:39.747Z,2.25
2022-11-19T00:26:06.602Z,1.90
2022-11-19T00:28:33.611Z,2.00
2022-11-19T00:31:08.568Z,1.90
2022-11-19T00:33:36.285Z,2.20
2022-11-19T00:36:05.835Z,2.05
2022-11-19T00:38:33.552Z,1.92
2022-11-19T00:41:00.349Z,1.63
2022-11-19T00:43:46.385Z,1.75
2022-11-19T00:46:25.268Z,1.80
2022-11-19T00:48:53.826Z,2.00
2022-11-19T00:51:22.556Z,1.98
2022-11-19T00:53:49.690Z,1.90
2022-11-19T00:56:19.000Z,2.20
2022-11-19T00:58:46.605Z,2.10
2022-11-19T01:01:14.695Z,2.28
2022-11-19T01:03:42.276Z,2.38
2022-11-19T01:06:10.051Z,2.10
2022-11-19T01:08:36.759Z,2.20
2022-11-19T01:11:10.708Z,2.00
2022-11-19T01:13:37.859Z,2.15
2022-11-19T01:16:10.422Z,2.03
2022-11-19T01:18:38.700Z,2.40
2022-11-19T01:21:07.372Z,2.28
2022-11-19T01:23:34.369Z,2.70
2022-11-19T01:26:01.426Z,2.47
2022-11-19T01:28:28.769Z,2.65
2022-11-19T01:30:55.654Z,2.63
2022-11-19T01:33:22.868Z,3.10
2022-11-19T01:36:00.372Z,3.17
2022-11-19T01:38:28.317Z,3.20
2022-11-19T01:40:55.868Z,3.70
2022-11-19T01:43:43.258Z,3.42
2022-11-19T01:46:12.054Z,3.10
2022-11-19T01:48:44.875Z,3.47
2022-11-19T01:51:21.545Z,3.60
2022-11-19T01:53:50.809Z,3.78
2022-11-19T01:56:20.210Z,4.07
2022-11-19T01:58:52.461Z,4.07
2022-11-19T02:01:20.254Z,4.28
2022-11-19T02:03:48.630Z,3.90
2022-11-19T02:06:15.477Z,3.42
2022-11-19T02:08:43.666Z,3.53
2022-11-19T02:11:31.938Z,3.53
2022-11-19T02:14:04.548Z,3.40
2022-11-19T02:16:48.367Z,3.22
2022-11-19T02:19:36.416Z,3.05
2022-11-19T02:22:42.552Z,2.80
2022-11-19T02:25:34.115Z,3.00
2022-11-19T02:28:22.359Z,2.80
2022-11-19T02:30:52.691Z,3.17
2022-11-19T02:33:54.374Z,2.75
2022-11-19T02:36:31.122Z,2.45
2022-11-19T02:39:19.020Z,2.80
2022-11-19T02:42:00.267Z,2.92
2022-11-19T02:44:58.679Z,2.78
2022-11-19T02:47:41.479Z,3.10
2022-11-19T02:50:28.087Z,2.85
2022-11-19T02:52:54.995Z,2.72
2022-11-19T02:55:22.314Z,2.97
2022-11-19T02:58:03.386Z,2.63
2022-11-19T03:00:59.203Z,2.70
2022-11-19T03:03:44.902Z,3.05
2022-11-19T03:06:18.763Z,3.05
2022-11-19T03:08:46.873Z,3.00
2022-11-19T03:11:21.729Z,2.95
2022-11-19T03:14:06.883Z,3.20
2022-11-19T03:16:43.026Z,3.20
2022-11-19T03:19:15.671Z,3.17
2022-11-19T03:22:10.249Z,2.70
2022-11-19T03:24:41.642Z,2.22
2022-11-19T03:27:29.899Z,2.90
2022-11-19T03:30:01.038Z,3.03
2022-11-19T03:32:35.303Z,2.78
2022-11-19T03:35:09.189Z,2.67
2022-11-19T03:37:39.511Z,2.40
2022-11-19T03:40:08.326Z,2.53
2022-11-19T03:42:36.709Z,2.80
2022-11-19T03:45:10.043Z,3.00
2022-11-19T03:47:40.104Z,2.60
2022-11-19T03:50:18.714Z,2.63
2022-11-19T03:52:45.524Z,2.50
2022-11-19T03:55:12.613Z,2.75
2022-11-19T03:57:39.776Z,2.58
2022-11-19T04:00:07.142Z,2.80
2022-11-19T04:02:33.910Z,2.65
2022-11-19T04:05:00.858Z,2.83
2022-11-19T04:07:27.696Z,2.97
2022-11-19T04:09:54.458Z,2.50
2022-11-19T04:12:23.423Z,3.00
2022-11-19T04:14:50.970Z,2.85
2022-11-19T04:17:18.936Z,2.90
2022-11-19T04:19:45.969Z,2.72
2022-11-19T04:22:12.718Z,2.90
2022-11-19T04:24:39.506Z,3.50
2022-11-19T04:27:06.254Z,3.10
2022-11-19T04:29:32.976Z,3.40
2022-11-19T04:31:59.732Z,3.35
2022-11-19T04:34:26.416Z,3.70
2022-11-19T04:36:53.071Z,4.07
2022-11-19T04:39:20.052Z,4.07
2022-11-19T04:41:47.018Z,4.10
2022-11-19T04:44:13.700Z,3.75
2022-11-19T04:46:40.647Z,3.92
2022-11-19T04:49:07.363Z,3.80
2022-11-19T04:51:34.024Z,3.70
2022-11-19T04:54:00.760Z,4.13
2022-11-19T04:56:27.529Z,3.80
2022-11-19T04:58:54.275Z,3.78
2022-11-19T05:01:22.194Z,3.55
2022-11-19T05:03:49.173Z,3.90
2022-11-19T05:06:15.895Z,3.40
2022-11-19T05:08:42.735Z,3.80
2022-11-19T05:11:09.465Z,3.83
2022-11-19T05:13:36.279Z,3.83
2022-11-19T05:16:03.614Z,4.35
2022-11-19T05:18:30.470Z,4.38
2022-11-19T05:20:57.209Z,4.30
2022-11-19T05:23:24.385Z,4.38
2022-11-19T05:25:51.354Z,4.45
2022-11-19T05:28:18.256Z,4.60
2022-11-19T05:30:44.915Z,4.55
2022-11-19T05:33:11.577Z,3.88
2022-11-19T05:35:38.232Z,4.53
2022-11-19T05:38:05.139Z,5.28
2022-11-19T05:40:31.778Z,6.30
2022-11-19T05:43:07.129Z,5.65
2022-11-19T05:45:33.943Z,5.20
2022-11-19T05:48:00.992Z,4.50
2022-11-19T05:50:27.686Z,4.80
2022-11-19T05:52:54.443Z,5.40
2022-11-19T05:55:21.103Z,6.90
2022-11-19T05:57:47.810Z,5.65
2022-11-19T06:00:16.228Z,4.90
2022-11-19T06:02:42.968Z,4.45
2022-11-19T06:05:10.328Z,3.88
2022-11-19T06:07:37.226Z,4.70
2022-11-19T06:10:05.063Z,5.10
2022-11-19T06:12:31.766Z,4.60
2022-11-19T06:14:58.522Z,5.15
2022-11-19T06:17:25.183Z,4.00
2022-11-19T06:19:51.886Z,3.63
2022-11-19T06:22:18.683Z,3.22
2022-11-19T06:24:45.371Z,3.97
2022-11-19T06:27:12.073Z,3.97
2022-11-19T06:29:38.938Z,3.80
2022-11-19T06:32:05.651Z,3.75
2022-11-19T06:34:32.343Z,3.63
2022-11-19T06:36:59.077Z,4.55
2022-11-19T06:39:26.185Z,5.07
2022-11-19T06:41:53.436Z,4.60
2022-11-19T06:44:20.132Z,5.53
2022-11-19T06:46:46.800Z,4.35
2022-11-19T06:49:19.649Z,4.03
2022-11-19T06:51:46.729Z,4.85
2022-11-19T06:54:13.482Z,3.80
2022-11-19T06:56:40.165Z,3.88
2022-11-19T06:59:06.838Z,3.53
2022-11-19T07:01:33.609Z,3.95
2022-11-19T07:04:00.299Z,4.60
2022-11-19T07:06:27.025Z,4.35
2022-11-19T07:08:53.678Z,6.80
2022-11-19T07:11:26.559Z,4.07
2022-11-19T07:13:57.216Z,5.28
2022-11-19T07:16:25.448Z,5.25
2022-11-19T07:18:52.322Z,5.28
2022-11-19T07:21:19.131Z,4.05
2022-11-19T07:23:45.849Z,4.45
2022-11-19T07:26:13.955Z,4.47
2022-11-19T07:28:40.720Z,4.05
2022-11-19T07:31:08.317Z,4.35
2022-11-19T07:33:36.084Z,5.13
2022-11-19T07:36:03.025Z,4.22
2022-11-19T07:38:34.088Z,5.55
2022-11-19T07:41:24.128Z,4.95
2022-11-19T07:43:51.012Z,4.00
2022-11-19T07:46:19.178Z,3.85
2022-11-19T07:48:46.053Z,4.47
2022-11-19T07:51:13.414Z,4.55
2022-11-19T07:53:40.099Z,4.68
2022-11-19T07:56:06.959Z,4.07
2022-11-19T07:58:33.636Z,5.10
2022-11-19T08:01:07.947Z,5.43
2022-11-19T08:03:34.689Z,4.50
2022-11-19T08:06:04.211Z,4.93
2022-11-19T08:08:32.100Z,6.45
2022-11-19T08:11:04.136Z,5.45
2022-11-19T08:13:31.163Z,6.15
2022-11-19T08:16:02.296Z,6.20
2022-11-19T08:18:31.310Z,5.75
2022-11-19T08:21:09.699Z,6.90
2022-11-19T08:23:37.810Z,5.18
2022-11-19T08:26:07.609Z,4.63
2022-11-19T08:28:34.699Z,4.30
2022-11-19T08:31:09.171Z,4.70
2022-11-19T08:36:03.992Z,4.85
2022-11-19T08:38:34.541Z,5.28
2022-11-19T08:41:22.698Z,5.50
2022-11-19T08:43:49.415Z,4.68
2022-11-19T08:46:16.116Z,4.72
2022-11-19T08:48:42.897Z,4.43
2022-11-19T08:51:10.553Z,4.85
2022-11-19T08:53:38.009Z,4.63
2022-11-19T08:56:05.386Z,5.40
2022-11-19T08:58:32.364Z,4.95
2022-11-19T09:00:59.294Z,5.00
2022-11-19T09:03:26.148Z,6.80
2022-11-19T09:06:00.189Z,5.65
2022-11-19T09:08:26.930Z,4.93
2022-11-19T09:10:53.638Z,5.88
2022-11-19T09:13:20.650Z,6.15
2022-11-19T09:15:51.795Z,5.95
2022-11-19T09:18:18.946Z,5.72
2022-11-19T09:20:45.745Z,5.80
2022-11-19T09:23:12.489Z,4.80
2022-11-19T09:25:39.233Z,4.50
2022-11-19T09:28:05.959Z,4.45
2022-11-19T09:30:32.690Z,4.20
2022-11-19T09:33:00.272Z,4.40
2022-11-19T09:35:27.065Z,4.85
2022-11-19T09:37:53.798Z,4.97
2022-11-19T09:40:21.888Z,4.07
2022-11-19T09:43:16.948Z,4.10
2022-11-19T09:46:14.675Z,3.90
2022-11-19T09:48:41.723Z,3.72
2022-11-19T09:51:14.961Z,4.25
2022-11-19T09:53:44.794Z,4.45
2022-11-19T09:56:17.985Z,3.95
2022-11-19T09:58:45.572Z,4.38
2022-11-19T10:01:17.882Z,3.53
2022-11-19T10:03:50.528Z,3.70
2022-11-19T10:06:26.451Z,3.40
2022-11-19T10:09:25.696Z,4.68
2022-11-19T10:12:24.378Z,6.03
2022-11-19T10:15:03.557Z,4.20
2022-11-19T10:17:38.441Z,3.15
2022-11-19T10:20:23.207Z,3.08
2022-11-19T10:25:36.015Z,2.63
2022-11-19T10:28:34.350Z,2.45
2022-11-19T10:31:41.463Z,2.40
2022-11-19T10:34:14.573Z,1.77
2022-11-19T10:36:45.729Z,2.00
2022-11-19T10:39:22.875Z,2.10
2022-11-19T10:41:52.198Z,1.80
2022-11-19T10:44:40.591Z,1.95
2022-11-19T10:47:19.283Z,1.75
2022-11-19T10:49:51.216Z,2.20
2022-11-19T10:52:31.010Z,2.08
2022-11-19T10:55:39.262Z,1.80
2022-11-19T10:58:18.222Z,2.05
2022-11-19T11:00:45.231Z,2.03
2022-11-19T11:03:29.129Z,1.50
2022-11-19T11:06:06.331Z,1.67
2022-11-19T11:08:34.117Z,1.75
2022-11-19T11:11:01.510Z,1.85
2022-11-19T11:13:53.216Z,2.30
2022-11-19T11:16:26.480Z,1.85
2022-11-19T11:18:56.606Z,1.73
2022-11-19T11:21:38.273Z,1.55
2022-11-19T11:24:05.586Z,1.50
2022-11-19T11:26:34.181Z,1.73
2022-11-19T11:29:02.979Z,1.63
2022-11-19T11:31:35.998Z,2.53
2022-11-19T11:34:04.160Z,10.02
2022-11-19T11:36:34.072Z,2.35
2022-11-19T11:39:02.389Z,3.40
2022-11-19T11:42:04.837Z,2.55
2022-11-19T11:44:32.421Z,1.75
2022-11-19T11:47:23.511Z,1.30
2022-11-19T11:50:18.010Z,1.55
2022-11-19T11:52:47.819Z,1.58
2022-11-19T11:55:29.228Z,2.42
2022-11-19T11:57:59.153Z,1.85
2022-11-19T12:00:34.640Z,1.92
2022-11-19T12:03:13.872Z,1.48
2022-11-19T12:05:44.851Z,2.00
2022-11-19T12:08:27.023Z,1.70
2022-11-19T12:11:19.891Z,1.35
2022-11-19T12:13:51.367Z,1.60
2022-11-19T12:16:45.406Z,2.50
2022-11-19T12:19:33.130Z,1.77
2022-11-19T12:22:26.203Z,1.70
2022-11-19T12:25:11.392Z,1.70
2022-11-19T12:27:47.041Z,1.98
2022-11-19T12:30:22.879Z,1.40
2022-11-19T12:32:58.386Z,1.58
2022-11-19T12:36:06.449Z,1.85
2022-11-19T12:38:40.583Z,1.77
2022-11-19T12:41:17.714Z,1.95
2022-11-19T12:43:53.255Z,3.15
2022-11-19T12:46:58.450Z,2.00
2022-11-19T12:49:52.215Z,2.00
2022-11-19T12:52:40.236Z,1.67
2022-11-19T12:55:29.299Z,1.58
2022-11-19T12:58:14.553Z,1.85
2022-11-19T13:00:52.200Z,1.20
2022-11-19T13:03:39.597Z,1.40
2022-11-19T13:06:21.319Z,1.40
2022-11-19T13:08:51.991Z,1.27
2022-11-19T13:11:36.619Z,1.58
2022-11-19T13:14:24.833Z,1.08
2022-11-19T13:16:54.646Z,1.23
2022-11-19T13:19:42.199Z,1.30
2022-11-19T13:22:20.314Z,1.60
2022-11-19T13:24:52.382Z,1.30
2022-11-19T13:27:23.411Z,1.38
2022-11-19T13:30:01.697Z,0.90
2022-11-19T13:33:02.251Z,0.82
2022-11-19T13:35:38.863Z,0.90
2022-11-19T13:38:32.103Z,0.80
2022-11-19T13:41:04.633Z,0.70
2022-11-19T13:43:49.868Z,0.73
2022-11-19T13:46:24.811Z,0.70
2022-11-19T13:49:02.991Z,0.68
2022-11-19T13:51:38.864Z,0.68
2022-11-19T13:54:08.268Z,1.40
2022-11-19T13:56:42.308Z,0.80
2022-11-19T13:59:26.378Z,0.90
2022-11-19T14:02:00.695Z,0.80
2022-11-19T14:04:44.529Z,1.00
2022-11-19T14:07:49.381Z,1.10
2022-11-19T14:10:19.389Z,1.98
2022-11-19T14:13:01.466Z,2.47
2022-11-19T14:16:11.244Z,2.97
2022-11-19T14:19:10.154Z,0.90
2022-11-19T14:22:09.218Z,1.35
2022-11-19T14:25:11.185Z,1.70
2022-11-19T14:27:38.425Z,1.90
2022-11-19T14:30:14.452Z,1.50
2022-11-19T14:32:50.594Z,1.50
2022-11-19T14:35:32.083Z,2.00
2022-11-19T14:38:18.980Z,1.52
2022-11-19T14:40:46.018Z,5.70
2022-11-19T14:43:31.364Z,4.35
2022-11-19T14:46:01.646Z,5.63
2022-11-19T14:48:30.344Z,4.50
2022-11-19T14:51:07.175Z,13.18
2022-11-19T14:53:37.647Z,20.73
2022-11-19T14:56:12.500Z,20.85
2022-11-19T14:58:39.365Z,3.00
2022-11-19T15:01:10.414Z,2.50
2022-11-19T15:03:38.062Z,3.55
2022-11-19T15:06:07.684Z,3.03
2022-11-19T15:08:49.338Z,2.08
2022-11-19T15:11:16.580Z,1.90
2022-11-19T15:13:45.277Z,2.15
2022-11-19T15:16:13.817Z,1.80
2022-11-19T15:18:40.543Z,2.40
2022-11-19T15:21:34.813Z,2.42
2022-11-19T15:24:13.520Z,17.47
2022-11-19T15:27:10.901Z,3.30
2022-11-19T15:29:59.299Z,2.90
2022-11-19T15:32:42.884Z,4.10
2022-11-19T15:35:56.649Z,4.40
2022-11-19T15:38:23.406Z,5.70
2022-11-19T15:40:53.363Z,2.60
2022-11-19T15:43:39.855Z,3.13
2022-11-19T15:46:14.869Z,3.20
2022-11-19T15:49:13.327Z,1.90
2022-11-19T15:51:59.788Z,1.60
2022-11-19T15:54:32.412Z,2.50
2022-11-19T15:57:17.082Z,3.60
2022-11-19T16:02:22.753Z,2.80
2022-11-19T16:04:53.131Z,2.70
2022-11-19T16:07:26.352Z,4.93
2022-11-19T16:09:53.718Z,7.57
2022-11-19T16:12:41.519Z,4.90
2022-11-19T16:15:56.273Z,4.53
2022-11-19T16:18:23.017Z,6.60
2022-11-19T16:20:51.497Z,9.45
2022-11-19T16:23:24.170Z,10.18
2022-11-19T16:25:52.528Z,11.00
2022-11-19T16:28:27.837Z,11.60
2022-11-19T16:31:03.924Z,10.68
2022-11-19T16:33:32.526Z,9.13
2022-11-19T16:36:18.914Z,9.27
2022-11-19T16:38:51.137Z,9.48
2022-11-19T16:41:38.971Z,7.03
2022-11-19T16:44:13.912Z,6.40
2022-11-19T16:46:41.007Z,6.45
2022-11-19T16:49:19.175Z,6.78
2022-11-19T16:51:53.488Z,8.05
2022-11-19T16:54:45.736Z,9.00
2022-11-19T16:57:21.187Z,7.88
2022-11-19T17:00:17.223Z,6.43
2022-11-19T17:02:44.508Z,5.53
2022-11-19T17:05:19.821Z,5.43
2022-11-19T17:07:49.566Z,5.80
2022-11-19T17:10:21.205Z,8.93
2022-11-19T17:12:58.711Z,11.00
2022-11-19T17:15:44.446Z,9.70
2022-11-19T17:18:32.639Z,8.57
2022-11-19T17:21:03.842Z,9.50
2022-11-19T17:23:34.219Z,7.90
2022-11-19T17:26:03.533Z,7.45
2022-11-19T17:28:40.784Z,11.38
2022-11-19T17:31:26.217Z,9.25
2022-11-19T17:34:04.881Z,12.20
2022-11-19T17:36:31.541Z,10.85
2022-11-19T17:38:58.682Z,13.32
2022-11-19T17:41:46.401Z,12.38
2022-11-19T17:44:37.917Z,11.15
2022-11-19T17:47:22.787Z,9.88
2022-11-19T17:49:51.496Z,8.50
2022-11-19T17:52:27.000Z,7.38
2022-11-19T17:54:56.803Z,13.63
2022-11-19T17:57:23.704Z,11.43
2022-11-19T17:59:50.857Z,10.00
2022-11-19T18:02:19.645Z,9.75
2022-11-19T18:04:47.528Z,13.45
2022-11-19T18:07:14.779Z,13.27
2022-11-19T18:09:41.833Z,15.27
2022-11-19T18:12:14.454Z,12.27
2022-11-19T18:14:41.655Z,17.95
2022-11-19T18:17:11.587Z,17.02
2022-11-19T18:19:38.560Z,11.23
2022-11-19T18:22:05.382Z,11.55
2022-11-19T18:24:32.091Z,14.65
2022-11-19T18:26:58.825Z,13.93
2022-11-19T18:29:25.619Z,14.20
2022-11-19T18:31:53.309Z,17.05
2022-11-19T18:34:22.708Z,14.70
2022-11-19T18:36:49.855Z,12.20
2022-11-19T18:39:17.058Z,11.35
2022-11-19T18:41:43.879Z,12.00
2022-11-19T18:44:34.105Z,11.40
2022-11-19T18:47:10.001Z,10.88
2022-11-19T18:49:37.755Z,10.65
2022-11-19T18:52:11.099Z,11.07
2022-11-19T18:54:37.800Z,11.95
2022-11-19T18:57:04.592Z,10.63
2022-11-19T18:59:31.344Z,10.13
2022-11-19T19:01:58.536Z,9.25
2022-11-19T19:04:25.349Z,10.63
2022-11-19T19:06:52.586Z,7.97
2022-11-19T19:09:20.478Z,7.65
2022-11-19T19:12:12.538Z,9.55
2022-11-19T19:14:40.542Z,8.23
2022-11-19T19:17:07.233Z,11.07
2022-11-19T19:19:33.929Z,11.00
2022-11-19T19:22:00.865Z,11.27
2022-11-19T19:24:27.893Z,10.75
2022-11-19T19:26:54.675Z,19.27
2022-11-19T19:29:22.196Z,27.05
2022-11-19T19:31:49.214Z,25.58
2022-11-19T19:34:17.049Z,22.00
2022-11-19T19:36:48.866Z,15.93
2022-11-19T19:39:18.840Z,13.13
2022-11-19T19:41:46.136Z,10.90
2022-11-19T19:44:12.894Z,12.07
2022-11-19T19:46:39.600Z,10.02
2022-11-19T19:49:06.476Z,9.30
2022-11-19T19:51:33.207Z,12.82
2022-11-19T19:54:01.430Z,14.77
2022-11-19T19:56:30.691Z,17.40
2022-11-19T19:58:58.411Z,15.00
2022-11-19T20:01:27.525Z,11.57
2022-11-19T20:03:55.096Z,8.98
2022-11-19T20:06:23.566Z,8.27
2022-11-19T20:08:50.601Z,10.20
2022-11-19T20:11:21.028Z,9.40
2022-11-19T20:13:48.309Z,9.73
2022-11-19T20:16:20.818Z,9.30
2022-11-19T20:18:49.144Z,9.90
2022-11-19T20:21:18.479Z,9.48
2022-11-19T20:23:45.548Z,10.65
2022-11-19T20:26:24.037Z,10.70
2022-11-19T20:28:56.149Z,16.67
2022-11-19T20:31:23.448Z,19.40
2022-11-19T20:33:55.282Z,14.25
2022-11-19T20:36:25.904Z,12.52
2022-11-19T20:38:52.977Z,11.95
2022-11-19T20:41:39.540Z,15.23
2022-11-19T20:44:23.330Z,11.95
2022-11-19T20:47:02.365Z,10.40
2022-11-19T20:49:31.405Z,7.18
2022-11-19T20:51:58.418Z,6.40
2022-11-19T20:54:25.889Z,7.15
2022-11-19T20:56:53.771Z,6.35
2022-11-19T20:59:21.463Z,5.70
2022-11-19T21:01:52.802Z,6.00
2022-11-19T21:04:20.299Z,4.97
2022-11-19T21:06:47.749Z,5.22
2022-11-19T21:09:15.859Z,5.18
2022-11-19T21:11:43.428Z,5.40
2022-11-19T21:14:10.144Z,5.53
2022-11-19T21:16:37.422Z,5.18
2022-11-19T21:19:04.279Z,5.22
2022-11-19T21:21:31.111Z,5.47
2022-11-19T21:23:57.897Z,3.90
2022-11-19T21:26:27.351Z,3.33
2022-11-19T21:28:56.515Z,3.75
2022-11-19T21:31:38.837Z,3.63
2022-11-19T21:34:14.486Z,4.18
2022-11-19T21:36:42.278Z,5.35
2022-11-19T21:39:09.859Z,5.65
2022-11-19T21:41:37.133Z,5.22
2022-11-19T21:44:04.825Z,4.80
2022-11-19T21:46:31.584Z,5.88
2022-11-19T21:48:58.426Z,9.18
2022-11-19T21:51:25.579Z,10.05
2022-11-19T21:53:56.896Z,4.40
2022-11-19T21:56:24.980Z,4.70
2022-11-19T21:58:51.675Z,4.15
2022-11-19T22:01:18.670Z,4.25
2022-11-19T22:03:45.478Z,5.15
2022-11-19T22:06:12.266Z,4.85
2022-11-19T22:08:41.370Z,4.85
2022-11-19T22:11:29.180Z,5.85
2022-11-19T22:14:07.362Z,6.05
2022-11-19T22:16:39.455Z,4.90
2022-11-19T22:19:06.666Z,4.28
2022-11-19T22:21:34.207Z,4.55
2022-11-19T22:24:01.226Z,5.40
2022-11-19T22:26:28.021Z,7.07
2022-11-19T22:28:55.020Z,8.15
2022-11-19T22:31:22.092Z,8.00
2022-11-19T22:33:52.031Z,8.23
2022-11-19T22:36:19.916Z,7.80
2022-11-19T22:38:46.616Z,7.78
2022-11-19T22:41:16.511Z,6.68
2022-11-19T22:43:44.050Z,7.00
2022-11-19T22:46:12.419Z,5.80
2022-11-19T22:48:39.450Z,5.78
2022-11-19T22:51:14.446Z,5.75
2022-11-19T22:53:41.595Z,5.75
2022-11-19T22:56:10.511Z,5.18
2022-11-19T22:58:37.967Z,5.07
2022-11-19T23:01:06.341Z,5.07
2022-11-19T23:03:33.348Z,5.35
2022-11-19T23:06:00.006Z,4.70
2022-11-19T23:08:27.147Z,5.00
2022-11-19T23:11:01.996Z,6.47
2022-11-19T23:13:33.566Z,7.93
2022-11-19T23:16:17.051Z,12.85
2022-11-19T23:18:47.943Z,5.70
2022-11-19T23:21:20.209Z,8.23
2022-11-19T23:23:47.079Z,5.65
2022-11-19T23:26:16.174Z,6.82
2022-11-19T23:28:43.241Z,14.25
2022-11-19T23:31:14.346Z,18.30
2022-11-19T23:33:42.001Z,12.68
2022-11-19T23:36:11.869Z,11.65
2022-11-19T23:38:39.296Z,10.68
2022-11-19T23:41:09.500Z,10.13
2022-11-19T23:43:36.902Z,9.13
2022-11-19T23:46:04.894Z,8.57
2022-11-19T23:48:32.986Z,8.02
2022-11-19T23:51:05.543Z,7.32
2022-11-19T23:53:32.195Z,6.72
2022-11-19T23:55:59.238Z,6.80
2022-11-19T23:58:27.768Z,6.45
